sensor_id;sensor_type;location;lat;lon;timestamp;pressure;altitude;pressure_sealevel;temperature;humidity
58311;BME280;45001;52.218;5.154;2022-08-01T00:00:11;101681.38;;;23.09;60.79
58311;BME280;45001;52.218;5.154;2022-08-01T00:02:37;101684.13;;;23.09;60.61
58311;BME280;45001;52.218;5.154;2022-08-01T00:05:03;101683.28;;;23.08;60.56
58311;BME280;45001;52.218;5.154;2022-08-01T00:07:31;101675.34;;;23.07;60.86
58311;BME280;45001;52.218;5.154;2022-08-01T00:09:56;101677.03;;;23.08;60.80
58311;BME280;45001;52.218;5.154;2022-08-01T00:12:21;101681.38;;;23.09;60.71
58311;BME280;45001;52.218;5.154;2022-08-01T00:14:47;101683.06;;;23.10;60.40
58311;BME280;45001;52.218;5.154;2022-08-01T00:17:12;101681.19;;;23.10;60.45
58311;BME280;45001;52.218;5.154;2022-08-01T00:19:37;101679.75;;;23.08;60.63
58311;BME280;45001;52.218;5.154;2022-08-01T00:22:03;101679.75;;;23.08;60.61
58311;BME280;45001;52.218;5.154;2022-08-01T00:24:28;101687.91;;;23.08;60.52
58311;BME280;45001;52.218;5.154;2022-08-01T00:26:53;101689.75;;;23.07;60.78
58311;BME280;45001;52.218;5.154;2022-08-01T00:29:18;101694.38;;;23.07;60.59
58311;BME280;45001;52.218;5.154;2022-08-01T00:31:44;101688.94;;;23.07;60.58
58311;BME280;45001;52.218;5.154;2022-08-01T00:34:09;101693.53;;;23.06;60.62
58311;BME280;45001;52.218;5.154;2022-08-01T00:36:34;101686.22;;;23.07;60.58
58311;BME280;45001;52.218;5.154;2022-08-01T00:39:00;101685.38;;;23.06;60.42
58311;BME280;45001;52.218;5.154;2022-08-01T00:41:25;101682.88;;;23.05;60.58
58311;BME280;45001;52.218;5.154;2022-08-01T00:43:50;101686.22;;;23.07;60.40
58311;BME280;45001;52.218;5.154;2022-08-01T00:46:15;101685.38;;;23.06;60.73
58311;BME280;45001;52.218;5.154;2022-08-01T00:48:41;101684.56;;;23.06;60.53
58311;BME280;45001;52.218;5.154;2022-08-01T00:51:07;101688.09;;;23.06;60.65
58311;BME280;45001;52.218;5.154;2022-08-01T00:53:33;101691.66;;;23.07;60.71
58311;BME280;45001;52.218;5.154;2022-08-01T00:55:59;101691.03;;;23.05;60.75
58311;BME280;45001;52.218;5.154;2022-08-01T00:58:25;101696.47;;;23.05;60.64
58311;BME280;45001;52.218;5.154;2022-08-01T01:00:50;101705.47;;;23.05;60.59
58311;BME280;45001;52.218;5.154;2022-08-01T01:03:15;101700.22;;;23.03;60.61
58311;BME280;45001;52.218;5.154;2022-08-01T01:06:01;101694.78;;;23.03;60.81
58311;BME280;45001;52.218;5.154;2022-08-01T01:08:36;101690.38;;;23.02;60.61
58311;BME280;45001;52.218;5.154;2022-08-01T01:11:10;101693.75;;;23.05;60.57
58311;BME280;45001;52.218;5.154;2022-08-01T01:13:43;101698.38;;;23.04;60.52
58311;BME280;45001;52.218;5.154;2022-08-01T01:16:15;101693.09;;;23.02;60.60
58311;BME280;45001;52.218;5.154;2022-08-01T01:18:47;101692.94;;;23.04;60.52
58311;BME280;45001;52.218;5.154;2022-08-01T01:29:12;101684.13;;;23.02;60.72
58311;BME280;45001;52.218;5.154;2022-08-01T01:32:01;101669.44;;;23.03;60.73
58311;BME280;45001;52.218;5.154;2022-08-01T01:34:28;101686.63;;;23.03;60.65
58311;BME280;45001;52.218;5.154;2022-08-01T01:36:56;101684.94;;;23.02;60.73
58311;BME280;45001;52.218;5.154;2022-08-01T01:39:24;101690.38;;;23.02;60.91
58311;BME280;45001;52.218;5.154;2022-08-01T01:41:52;101679.72;;;23.01;60.67
58311;BME280;45001;52.218;5.154;2022-08-01T01:44:19;101686.22;;;23.00;60.94
58311;BME280;45001;52.218;5.154;2022-08-01T01:46:45;101687.03;;;23.00;60.76
58311;BME280;45001;52.218;5.154;2022-08-01T01:49:11;101691.41;;;23.01;60.78
58311;BME280;45001;52.218;5.154;2022-08-01T01:51:38;101698.75;;;23.01;60.74
58311;BME280;45001;52.218;5.154;2022-08-01T01:54:05;101697.72;;;23.02;60.83
58311;BME280;45001;52.218;5.154;2022-08-01T01:56:32;101693.50;;;22.99;60.81
58311;BME280;45001;52.218;5.154;2022-08-01T01:59:01;101696.03;;;23.01;60.70
58311;BME280;45001;52.218;5.154;2022-08-01T02:01:29;101696.84;;;23.01;60.69
58311;BME280;45001;52.218;5.154;2022-08-01T02:03:56;101688.69;;;23.01;60.70
58311;BME280;45001;52.218;5.154;2022-08-01T02:06:23;101684.53;;;22.99;60.67
58311;BME280;45001;52.218;5.154;2022-08-01T02:08:52;101696.22;;;22.99;60.85
58311;BME280;45001;52.218;5.154;2022-08-01T02:11:20;101697.31;;;22.98;60.57
58311;BME280;45001;52.218;5.154;2022-08-01T02:14:02;101698.34;;;22.97;60.88
58311;BME280;45001;52.218;5.154;2022-08-01T02:16:31;101700.03;;;22.98;60.75
58311;BME280;45001;52.218;5.154;2022-08-01T02:18:58;101700.03;;;22.98;60.84
58311;BME280;45001;52.218;5.154;2022-08-01T02:21:35;101700.03;;;22.98;60.94
58311;BME280;45001;52.218;5.154;2022-08-01T02:24:31;101705.47;;;22.98;60.87
58311;BME280;45001;52.218;5.154;2022-08-01T02:27:00;101710.03;;;22.98;61.01
58311;BME280;45001;52.218;5.154;2022-08-01T02:29:33;101698.34;;;22.97;61.14
58311;BME280;45001;52.218;5.154;2022-08-01T02:32:02;101702.13;;;22.96;61.09
58311;BME280;45001;52.218;5.154;2022-08-01T02:34:29;101716.34;;;22.98;61.08
58311;BME280;45001;52.218;5.154;2022-08-01T02:36:58;101716.34;;;22.98;60.86
58311;BME280;45001;52.218;5.154;2022-08-01T02:39:26;101707.56;;;22.96;61.29
58311;BME280;45001;52.218;5.154;2022-08-01T02:41:58;101710.03;;;22.98;61.19
58311;BME280;45001;52.218;5.154;2022-08-01T02:44:30;101706.69;;;22.96;61.00
58311;BME280;45001;52.218;5.154;2022-08-01T02:46:58;101703.16;;;22.95;61.20
58311;BME280;45001;52.218;5.154;2022-08-01T02:49:30;101709.22;;;22.97;60.94
58311;BME280;45001;52.218;5.154;2022-08-01T02:51:56;101697.50;;;22.97;61.11
58311;BME280;45001;52.218;5.154;2022-08-01T02:54:22;101705.03;;;22.95;61.00
58311;BME280;45001;52.218;5.154;2022-08-01T02:56:49;101705.03;;;22.95;61.07
58311;BME280;45001;52.218;5.154;2022-08-01T02:59:18;101696.03;;;22.94;60.90
58311;BME280;45001;52.218;5.154;2022-08-01T03:01:45;101699.59;;;22.95;60.85
58311;BME280;45001;52.218;5.154;2022-08-01T03:04:12;101701.47;;;22.94;60.89
58311;BME280;45001;52.218;5.154;2022-08-01T03:06:38;101693.56;;;22.93;60.99
58311;BME280;45001;52.218;5.154;2022-08-01T03:09:04;101701.72;;;22.93;60.92
58311;BME280;45001;52.218;5.154;2022-08-01T03:11:31;101700.84;;;22.92;61.06
58311;BME280;45001;52.218;5.154;2022-08-01T03:14:02;101697.09;;;22.93;61.01
58311;BME280;45001;52.218;5.154;2022-08-01T03:16:28;101700.84;;;22.92;60.78
58311;BME280;45001;52.218;5.154;2022-08-01T03:18:56;101708.81;;;22.94;60.73
58311;BME280;45001;52.218;5.154;2022-08-01T03:21:23;101715.06;;;22.94;60.83
58311;BME280;45001;52.218;5.154;2022-08-01T03:23:50;101710.69;;;22.93;60.86
58311;BME280;45001;52.218;5.154;2022-08-01T03:26:18;101715.06;;;22.94;60.76
58311;BME280;45001;52.218;5.154;2022-08-01T03:28:44;101716.75;;;22.95;60.54
58311;BME280;45001;52.218;5.154;2022-08-01T03:31:12;101716.13;;;22.93;60.68
58311;BME280;45001;52.218;5.154;2022-08-01T03:33:39;101709.00;;;22.92;60.74
58311;BME280;45001;52.218;5.154;2022-08-01T03:36:04;101714.44;;;22.92;60.74
58311;BME280;45001;52.218;5.154;2022-08-01T03:38:37;101719.88;;;22.92;60.76
58311;BME280;45001;52.218;5.154;2022-08-01T03:41:15;101715.50;;;22.91;60.54
58311;BME280;45001;52.218;5.154;2022-08-01T03:44:05;101715.50;;;22.91;60.71
58311;BME280;45001;52.218;5.154;2022-08-01T03:46:40;101720.94;;;22.91;60.49
58311;BME280;45001;52.218;5.154;2022-08-01T03:49:11;101719.25;;;22.90;60.62
58311;BME280;45001;52.218;5.154;2022-08-01T03:51:40;101723.03;;;22.89;60.85
58311;BME280;45001;52.218;5.154;2022-08-01T03:54:06;101725.56;;;22.91;60.71
58311;BME280;45001;52.218;5.154;2022-08-01T03:56:33;101724.69;;;22.90;60.63
58311;BME280;45001;52.218;5.154;2022-08-01T03:59:00;101715.72;;;22.90;60.64
58311;BME280;45001;52.218;5.154;2022-08-01T04:01:27;101722.19;;;22.89;60.79
58311;BME280;45001;52.218;5.154;2022-08-01T04:03:54;101717.81;;;22.88;60.58
58311;BME280;45001;52.218;5.154;2022-08-01T04:06:19;101717.59;;;22.89;60.85
58311;BME280;45001;52.218;5.154;2022-08-01T04:08:45;101717.59;;;22.89;60.44
58311;BME280;45001;52.218;5.154;2022-08-01T04:11:20;101716.75;;;22.89;60.60
58311;BME280;45001;52.218;5.154;2022-08-01T04:13:46;101719.72;;;22.87;60.61
58311;BME280;45001;52.218;5.154;2022-08-01T04:16:11;101726.78;;;22.88;60.86
58311;BME280;45001;52.218;5.154;2022-08-01T04:18:36;101736.03;;;22.87;60.54
58311;BME280;45001;52.218;5.154;2022-08-01T04:21:02;101729.50;;;22.88;60.52
58311;BME280;45001;52.218;5.154;2022-08-01T04:23:27;101736.03;;;22.87;60.66
58311;BME280;45001;52.218;5.154;2022-08-01T04:25:57;101736.03;;;22.87;60.53
58311;BME280;45001;52.218;5.154;2022-08-01T04:28:24;101736.84;;;22.88;60.87
58311;BME280;45001;52.218;5.154;2022-08-01T04:30:53;101727.88;;;22.87;60.76
58311;BME280;45001;52.218;5.154;2022-08-01T04:33:19;101735.16;;;22.87;60.62
58311;BME280;45001;52.218;5.154;2022-08-01T04:35:46;101732.69;;;22.85;60.71
58311;BME280;45001;52.218;5.154;2022-08-01T04:38:17;101731.81;;;22.84;60.67
58311;BME280;45001;52.218;5.154;2022-08-01T04:40:44;101735.41;;;22.85;60.52
58311;BME280;45001;52.218;5.154;2022-08-01T04:43:13;101733.50;;;22.86;60.89
58311;BME280;45001;52.218;5.154;2022-08-01T04:45:40;101747.09;;;22.86;60.71
58311;BME280;45001;52.218;5.154;2022-08-01T04:48:06;101747.94;;;22.86;60.68
58311;BME280;45001;52.218;5.154;2022-08-01T04:50:34;101755.25;;;22.86;60.71
58311;BME280;45001;52.218;5.154;2022-08-01T04:52:59;101759.63;;;22.87;60.89
58311;BME280;45001;52.218;5.154;2022-08-01T04:55:28;101771.56;;;22.86;60.68
58311;BME280;45001;52.218;5.154;2022-08-01T04:57:53;101753.78;;;22.83;60.79
58311;BME280;45001;52.218;5.154;2022-08-01T05:00:19;101759.00;;;22.84;60.86
58311;BME280;45001;52.218;5.154;2022-08-01T05:02:44;101759.00;;;22.84;60.80
58311;BME280;45001;52.218;5.154;2022-08-01T05:05:10;101754.63;;;22.83;60.94
58311;BME280;45001;52.218;5.154;2022-08-01T05:07:35;101758.19;;;22.84;61.20
58311;BME280;45001;52.218;5.154;2022-08-01T05:10:02;101759.22;;;22.83;61.23
58311;BME280;45001;52.218;5.154;2022-08-01T05:12:28;101761.09;;;22.82;61.13
58311;BME280;45001;52.218;5.154;2022-08-01T05:14:54;101761.09;;;22.82;61.08
58311;BME280;45001;52.218;5.154;2022-08-01T05:17:19;101762.78;;;22.83;60.94
58311;BME280;45001;52.218;5.154;2022-08-01T05:19:44;101760.06;;;22.83;61.29
58311;BME280;45001;52.218;5.154;2022-08-01T05:22:10;101761.09;;;22.82;61.33
58311;BME280;45001;52.218;5.154;2022-08-01T05:24:37;101759.22;;;22.83;61.29
58311;BME280;45001;52.218;5.154;2022-08-01T05:27:03;101768.44;;;22.82;61.41
58311;BME280;45001;52.218;5.154;2022-08-01T05:29:30;101767.38;;;22.83;61.23
58311;BME280;45001;52.218;5.154;2022-08-01T05:31:55;101772.19;;;22.81;61.53
58311;BME280;45001;52.218;5.154;2022-08-01T05:34:21;101771.34;;;22.80;61.46
58311;BME280;45001;52.218;5.154;2022-08-01T05:36:47;101770.53;;;22.80;61.51
58311;BME280;45001;52.218;5.154;2022-08-01T05:39:12;101769.47;;;22.81;61.45
58311;BME280;45001;52.218;5.154;2022-08-01T05:41:38;101769.47;;;22.81;61.58
58311;BME280;45001;52.218;5.154;2022-08-01T05:44:04;101772.41;;;22.86;61.44
58311;BME280;45001;52.218;5.154;2022-08-01T05:46:30;101775.97;;;23.07;61.68
58311;BME280;45001;52.218;5.154;2022-08-01T05:48:57;101782.00;;;23.29;61.36
58311;BME280;45001;52.218;5.154;2022-08-01T05:51:22;101779.47;;;23.40;61.38
58311;BME280;45001;52.218;5.154;2022-08-01T05:53:48;101778.19;;;23.50;61.74
58311;BME280;45001;52.218;5.154;2022-08-01T05:56:13;101785.25;;;23.57;61.41
58311;BME280;45001;52.218;5.154;2022-08-01T05:58:38;101780.03;;;23.63;61.59
58311;BME280;45001;52.218;5.154;2022-08-01T06:01:04;101786.94;;;23.65;61.83
58311;BME280;45001;52.218;5.154;2022-08-01T06:03:29;101797.19;;;23.70;61.59
58311;BME280;45001;52.218;5.154;2022-08-01T06:05:56;101788.56;;;23.79;61.73
58311;BME280;45001;52.218;5.154;2022-08-01T06:08:22;101781.63;;;23.84;61.51
58311;BME280;45001;52.218;5.154;2022-08-01T06:10:47;101792.47;;;23.25;62.78
58311;BME280;45001;52.218;5.154;2022-08-01T06:13:12;101800.66;;;22.85;63.97
58311;BME280;45001;52.218;5.154;2022-08-01T06:15:38;101804.19;;;22.79;64.22
58311;BME280;45001;52.218;5.154;2022-08-01T06:18:04;101801.66;;;22.77;64.16
58311;BME280;45001;52.218;5.154;2022-08-01T06:20:30;101806.06;;;22.72;64.49
58311;BME280;45001;52.218;5.154;2022-08-01T06:22:55;101808.16;;;22.70;64.36
58311;BME280;45001;52.218;5.154;2022-08-01T06:25:20;101810.88;;;22.70;64.40
58311;BME280;45001;52.218;5.154;2022-08-01T06:27:46;101809.22;;;22.69;64.45
58311;BME280;45001;52.218;5.154;2022-08-01T06:30:11;101806.06;;;22.65;64.51
58311;BME280;45001;52.218;5.154;2022-08-01T06:32:37;101804.59;;;22.62;64.59
58311;BME280;45001;52.218;5.154;2022-08-01T06:35:02;101807.75;;;22.59;64.59
58311;BME280;45001;52.218;5.154;2022-08-01T06:37:29;101806.69;;;22.60;64.41
58311;BME280;45001;52.218;5.154;2022-08-01T06:39:55;101807.97;;;22.64;64.29
58311;BME280;45001;52.218;5.154;2022-08-01T06:42:20;101817.38;;;22.69;64.05
58311;BME280;45001;52.218;5.154;2022-08-01T06:44:45;101811.28;;;22.87;64.24
58311;BME280;45001;52.218;5.154;2022-08-01T06:47:11;101825.72;;;22.60;65.45
58311;BME280;45001;52.218;5.154;2022-08-01T06:49:37;101820.03;;;22.42;65.57
58311;BME280;45001;52.218;5.154;2022-08-01T06:52:02;101823.78;;;22.34;65.62
58311;BME280;45001;52.218;5.154;2022-08-01T06:54:28;101828.78;;;22.31;65.61
58311;BME280;45001;52.218;5.154;2022-08-01T06:56:54;101832.94;;;22.26;65.61
58311;BME280;45001;52.218;5.154;2022-08-01T06:59:19;101834.63;;;22.28;65.61
58311;BME280;45001;52.218;5.154;2022-08-01T07:01:44;101831.06;;;22.27;65.45
58311;BME280;45001;52.218;5.154;2022-08-01T07:04:09;101833.31;;;22.23;65.40
58311;BME280;45001;52.218;5.154;2022-08-01T07:06:35;101838.84;;;22.43;64.75
58311;BME280;45001;52.218;5.154;2022-08-01T07:09:00;101846.03;;;22.98;63.66
58311;BME280;45001;52.218;5.154;2022-08-01T07:11:26;101846.91;;;23.25;63.02
58311;BME280;45001;52.218;5.154;2022-08-01T07:13:52;101845.41;;;23.42;62.64
58311;BME280;45001;52.218;5.154;2022-08-01T07:16:17;101847.09;;;23.50;62.80
58311;BME280;45001;52.218;5.154;2022-08-01T07:18:44;101852.91;;;23.60;62.76
58311;BME280;45001;52.218;5.154;2022-08-01T07:21:09;101853.94;;;23.66;62.67
58311;BME280;45001;52.218;5.154;2022-08-01T07:23:34;101851.00;;;23.68;62.95
58311;BME280;45001;52.218;5.154;2022-08-01T07:26:00;101849.72;;;23.77;63.10
58311;BME280;45001;52.218;5.154;2022-08-01T07:28:27;101851.66;;;22.76;61.71
58311;BME280;45001;52.218;5.154;2022-08-01T07:30:53;101856.56;;;22.33;63.04
58311;BME280;45001;52.218;5.154;2022-08-01T07:33:18;101863.66;;;22.27;63.41
58311;BME280;45001;52.218;5.154;2022-08-01T07:35:43;101855.91;;;22.24;63.57
58311;BME280;45001;52.218;5.154;2022-08-01T07:38:09;101856.38;;;22.28;63.20
58311;BME280;45001;52.218;5.154;2022-08-01T07:40:35;101862.88;;;22.40;63.20
58311;BME280;45001;52.218;5.154;2022-08-01T07:43:00;101862.38;;;23.05;61.39
58311;BME280;45001;52.218;5.154;2022-08-01T07:45:26;101865.53;;;23.28;60.30
58311;BME280;45001;52.218;5.154;2022-08-01T07:47:52;101862.16;;;23.39;60.11
58311;BME280;45001;52.218;5.154;2022-08-01T07:50:17;101867.78;;;23.45;59.55
58311;BME280;45001;52.218;5.154;2022-08-01T07:52:42;101869.06;;;23.49;59.32
58311;BME280;45001;52.218;5.154;2022-08-01T07:55:09;101876.16;;;23.50;59.07
58311;BME280;45001;52.218;5.154;2022-08-01T07:57:34;101875.75;;;23.53;59.01
58311;BME280;45001;52.218;5.154;2022-08-01T08:00:00;101874.06;;;23.52;58.83
58311;BME280;45001;52.218;5.154;2022-08-01T08:02:25;101875.75;;;23.53;58.72
58311;BME280;45001;52.218;5.154;2022-08-01T08:04:51;101879.31;;;23.53;58.50
58311;BME280;45001;52.218;5.154;2022-08-01T08:07:16;101882.84;;;23.54;58.11
58311;BME280;45001;52.218;5.154;2022-08-01T08:09:42;101879.31;;;23.53;58.16
58311;BME280;45001;52.218;5.154;2022-08-01T08:12:07;101888.31;;;23.40;58.62
58311;BME280;45001;52.218;5.154;2022-08-01T08:14:33;101888.28;;;23.80;57.59
58311;BME280;45001;52.218;5.154;2022-08-01T08:16:59;101881.34;;;23.78;57.80
58311;BME280;45001;52.218;5.154;2022-08-01T08:19:24;101882.63;;;23.82;57.91
58311;BME280;45001;52.218;5.154;2022-08-01T08:21:49;101897.09;;;23.83;58.00
58311;BME280;45001;52.218;5.154;2022-08-01T08:24:14;101894.56;;;23.81;58.21
58311;BME280;45001;52.218;5.154;2022-08-01T08:26:50;101893.28;;;23.97;57.59
58311;BME280;45001;52.218;5.154;2022-08-01T08:29:16;101903.72;;;24.00;56.60
58311;BME280;45001;52.218;5.154;2022-08-01T08:31:41;101902.06;;;23.99;56.89
58311;BME280;45001;52.218;5.154;2022-08-01T08:34:07;101902.50;;;23.96;57.03
58311;BME280;45001;52.218;5.154;2022-08-01T08:36:32;101909.59;;;24.04;57.24
58311;BME280;45001;52.218;5.154;2022-08-01T08:38:59;101896.72;;;24.24;56.21
58311;BME280;45001;52.218;5.154;2022-08-01T08:41:25;101903.88;;;24.18;55.53
58311;BME280;45001;52.218;5.154;2022-08-01T08:43:51;101896.91;;;24.29;55.59
58311;BME280;45001;52.218;5.154;2022-08-01T08:46:16;101904.53;;;24.14;55.67
58311;BME280;45001;52.218;5.154;2022-08-01T08:48:42;101902.03;;;24.12;55.95
58311;BME280;45001;52.218;5.154;2022-08-01T08:51:08;101903.03;;;24.18;56.35
58311;BME280;45001;52.218;5.154;2022-08-01T08:53:38;101910.34;;;24.31;56.41
58311;BME280;45001;52.218;5.154;2022-08-01T08:56:08;101907.00;;;24.29;56.23
58311;BME280;45001;52.218;5.154;2022-08-01T08:58:34;101916.63;;;24.25;56.00
58311;BME280;45001;52.218;5.154;2022-08-01T09:01:05;101903.66;;;24.27;55.24
58311;BME280;45001;52.218;5.154;2022-08-01T09:03:31;101911.91;;;24.45;54.47
58311;BME280;45001;52.218;5.154;2022-08-01T09:05:56;101914.09;;;24.36;55.51
58311;BME280;45001;52.218;5.154;2022-08-01T09:08:21;101911.16;;;24.38;55.09
58311;BME280;45001;52.218;5.154;2022-08-01T09:10:46;101927.03;;;24.41;54.32
58311;BME280;45001;52.218;5.154;2022-08-01T09:13:13;101926.22;;;24.41;54.49
58311;BME280;45001;52.218;5.154;2022-08-01T09:15:40;101924.56;;;24.33;54.94
58311;BME280;45001;52.218;5.154;2022-08-01T09:18:06;101926.19;;;24.47;54.11
58311;BME280;45001;52.218;5.154;2022-08-01T09:20:31;101931.69;;;24.34;54.13
58311;BME280;45001;52.218;5.154;2022-08-01T09:22:57;101922.63;;;24.53;53.65
58311;BME280;45001;52.218;5.154;2022-08-01T09:25:22;101924.09;;;24.49;53.39
58311;BME280;45001;52.218;5.154;2022-08-01T09:27:47;101929.50;;;24.63;53.92
58311;BME280;45001;52.218;5.154;2022-08-01T09:30:18;101932.28;;;24.49;53.81
58311;BME280;45001;52.218;5.154;2022-08-01T09:35:24;101942.53;;;23.62;54.93
58311;BME280;45001;52.218;5.154;2022-08-01T09:37:49;101938.97;;;23.68;53.49
58311;BME280;45001;52.218;5.154;2022-08-01T09:40:15;101944.41;;;23.68;53.01
58311;BME280;45001;52.218;5.154;2022-08-01T09:42:40;101953.81;;;23.99;52.37
58311;BME280;45001;52.218;5.154;2022-08-01T09:45:06;101957.34;;;24.13;52.19
58311;BME280;45001;52.218;5.154;2022-08-01T09:47:38;101942.56;;;24.41;51.96
58311;BME280;45001;52.218;5.154;2022-08-01T09:50:04;101946.72;;;24.50;51.78
58311;BME280;45001;52.218;5.154;2022-08-01T09:52:30;101951.53;;;24.61;51.67
58311;BME280;45001;52.218;5.154;2022-08-01T09:54:56;101956.41;;;24.39;51.70
58311;BME280;45001;52.218;5.154;2022-08-01T09:57:22;101943.78;;;24.58;51.18
58311;BME280;45001;52.218;5.154;2022-08-01T09:59:55;101953.50;;;24.34;52.07
58311;BME280;45001;52.218;5.154;2022-08-01T10:02:35;101955.19;;;24.35;51.26
58311;BME280;45001;52.218;5.154;2022-08-01T10:05:03;101955.53;;;24.59;50.90
58311;BME280;45001;52.218;5.154;2022-08-01T10:07:29;101963.09;;;24.43;50.97
58311;BME280;45001;52.218;5.154;2022-08-01T10:09:54;101953.06;;;24.37;51.01
58311;BME280;45001;52.218;5.154;2022-08-01T10:12:21;101954.41;;;24.14;51.24
58311;BME280;45001;52.218;5.154;2022-08-01T10:14:48;101951.97;;;23.86;51.78
58311;BME280;45001;52.218;5.154;2022-08-01T10:17:24;101961.81;;;23.80;51.40
58311;BME280;45001;52.218;5.154;2022-08-01T10:19:49;101959.50;;;23.84;50.82
58311;BME280;45001;52.218;5.154;2022-08-01T10:22:16;101955.94;;;23.64;52.56
58311;BME280;45001;52.218;5.154;2022-08-01T10:24:46;101959.50;;;23.84;50.96
58311;BME280;45001;52.218;5.154;2022-08-01T10:27:14;101954.88;;;23.71;51.74
58311;BME280;45001;52.218;5.154;2022-08-01T10:29:51;101960.75;;;23.68;50.83
58311;BME280;45001;52.218;5.154;2022-08-01T10:32:20;101960.34;;;23.58;50.28
58311;BME280;45001;52.218;5.154;2022-08-01T10:34:46;101963.50;;;23.61;50.91
58311;BME280;45001;52.218;5.154;2022-08-01T10:37:12;101961.81;;;23.60;51.28
58311;BME280;45001;52.218;5.154;2022-08-01T10:39:39;101958.22;;;23.67;51.45
58311;BME280;45001;52.218;5.154;2022-08-01T10:42:05;101963.47;;;23.68;50.00
58311;BME280;45001;52.218;5.154;2022-08-01T10:44:31;101956.16;;;23.42;50.07
58311;BME280;45001;52.218;5.154;2022-08-01T10:47:11;101962.41;;;23.42;48.11
58311;BME280;45001;52.218;5.154;2022-08-01T10:53:24;101967.06;;;23.35;47.53
58311;BME280;45001;52.218;5.154;2022-08-01T10:56:04;101963.69;;;23.40;48.63
58311;BME280;45001;52.218;5.154;2022-08-01T10:58:35;101972.47;;;23.75;48.61
58311;BME280;45001;52.218;5.154;2022-08-01T11:03:40;101972.66;;;24.07;48.77
58311;BME280;45001;52.218;5.154;2022-08-01T11:06:05;101976.19;;;24.21;47.95
58311;BME280;45001;52.218;5.154;2022-08-01T11:08:35;101972.81;;;24.26;47.67
58311;BME280;45001;52.218;5.154;2022-08-01T11:11:02;101977.44;;;24.18;47.19
58311;BME280;45001;52.218;5.154;2022-08-01T11:14:05;101981.66;;;24.14;48.35
58311;BME280;45001;52.218;5.154;2022-08-01T11:16:37;101981.81;;;24.33;48.02
58311;BME280;45001;52.218;5.154;2022-08-01T11:19:04;101986.22;;;24.27;47.29
58311;BME280;45001;52.218;5.154;2022-08-01T11:27:19;101990.75;;;24.60;45.48
58311;BME280;45001;52.218;5.154;2022-08-01T11:32:49;101990.13;;;24.51;45.61
58311;BME280;45001;52.218;5.154;2022-08-01T11:35:14;101988.47;;;24.57;45.23
58311;BME280;45001;52.218;5.154;2022-08-01T11:37:40;101989.72;;;24.54;45.13
58311;BME280;45001;52.218;5.154;2022-08-01T11:40:21;101987.47;;;24.38;46.37
58311;BME280;45001;52.218;5.154;2022-08-01T11:42:48;101991.44;;;24.35;45.39
58311;BME280;45001;52.218;5.154;2022-08-01T11:45:14;101980.31;;;24.44;43.92
58311;BME280;45001;52.218;5.154;2022-08-01T11:47:49;101981.53;;;24.54;44.13
58311;BME280;45001;52.218;5.154;2022-08-01T11:50:30;101982.09;;;24.05;48.17
58311;BME280;45001;52.218;5.154;2022-08-01T11:53:03;101985.41;;;24.20;45.82
58311;BME280;45001;52.218;5.154;2022-08-01T11:55:29;101987.41;;;24.45;46.21
58311;BME280;45001;52.218;5.154;2022-08-01T11:58:02;101987.41;;;24.51;46.54
58311;BME280;45001;52.218;5.154;2022-08-01T12:00:28;101982.53;;;24.73;45.90
58311;BME280;45001;52.218;5.154;2022-08-01T12:03:04;101983.53;;;24.79;45.68
58311;BME280;45001;52.218;5.154;2022-08-01T12:05:30;101978.09;;;24.72;45.43
58311;BME280;45001;52.218;5.154;2022-08-01T12:07:57;101977.91;;;24.74;46.04
58311;BME280;45001;52.218;5.154;2022-08-01T12:10:28;101985.66;;;24.77;46.23
58311;BME280;45001;52.218;5.154;2022-08-01T12:13:00;101993.84;;;24.70;46.87
58311;BME280;45001;52.218;5.154;2022-08-01T12:15:30;101983.28;;;24.87;46.39
58311;BME280;45001;52.218;5.154;2022-08-01T12:17:57;101988.84;;;24.99;45.38
58311;BME280;45001;52.218;5.154;2022-08-01T12:20:24;101994.78;;;24.96;45.19
58311;BME280;45001;52.218;5.154;2022-08-01T12:22:54;101993.69;;;25.04;44.36
58311;BME280;45001;52.218;5.154;2022-08-01T12:25:20;101991.59;;;24.99;45.07
58311;BME280;45001;52.218;5.154;2022-08-01T12:27:46;101989.16;;;25.16;44.73
58311;BME280;45001;52.218;5.154;2022-08-01T12:30:17;101996.19;;;25.05;44.44
58311;BME280;45001;52.218;5.154;2022-08-01T12:32:44;101998.91;;;25.05;43.16
58311;BME280;45001;52.218;5.154;2022-08-01T12:35:18;101997.19;;;25.11;43.82
58311;BME280;45001;52.218;5.154;2022-08-01T12:37:49;101989.34;;;24.89;45.10
58311;BME280;45001;52.218;5.154;2022-08-01T12:42:44;101992.19;;;25.08;43.88
58311;BME280;45001;52.218;5.154;2022-08-01T12:45:12;101997.63;;;25.08;43.54
58311;BME280;45001;52.218;5.154;2022-08-01T12:47:41;101995.13;;;25.06;44.06
58311;BME280;45001;52.218;5.154;2022-08-01T12:50:14;101998.94;;;24.99;43.59
58311;BME280;45001;52.218;5.154;2022-08-01T12:52:41;101999.66;;;25.19;43.52
58311;BME280;45001;52.218;5.154;2022-08-01T12:55:13;101998.84;;;25.12;41.96
58311;BME280;45001;52.218;5.154;2022-08-01T12:57:41;102001.78;;;25.17;43.87
58311;BME280;45001;52.218;5.154;2022-08-01T13:00:24;102000.06;;;25.23;43.26
58311;BME280;45001;52.218;5.154;2022-08-01T13:03:18;101996.66;;;25.34;41.69
58311;BME280;45001;52.218;5.154;2022-08-01T13:05:52;101996.13;;;25.12;43.26
58311;BME280;45001;52.218;5.154;2022-08-01T13:11:06;101987.13;;;25.11;43.42
58311;BME280;45001;52.218;5.154;2022-08-01T13:13:41;101990.44;;;25.20;41.62
58311;BME280;45001;52.218;5.154;2022-08-01T13:16:08;101990.44;;;25.20;41.33
58311;BME280;45001;52.218;5.154;2022-08-01T13:18:35;101994.00;;;25.14;40.96
58311;BME280;45001;52.218;5.154;2022-08-01T13:21:11;101996.25;;;25.30;41.60
58311;BME280;45001;52.218;5.154;2022-08-01T13:23:41;101988.75;;;25.19;43.25